Roe, Arkansas
Current Conditions -  °F | °C
As of 11:15 PM on Monday 20 Oct 2014 (Local Time) from KSGT Reporting Station
Clear Clear  
Wind Chill: 59°   Ceiling: Unl
Heat Index: 59°   Visibility: 10mi
Dew Point: 54°   Wind: 5mph
Humidity: 82%   Direction: 240°WSW
Pressure: 30.06"   Gusts: NA
Location:  34.63°N, 91.39°W
Report Text: KSGT 210415Z AUTO 24004KT 10SM CLR 15/12 A3006 RMK AO1
Loading
Personal Weather Stations






























Interactive Weather Map
Tropical Storm Tracking
New forecast layout! Learn more

10-Day Weather Forecast

Advertisements
Track Severe Weather on mobile